sensor_id;sensor_type;location;lat;lon;timestamp;temperature;humidity
59857;DHT22;45733;52.668;6.860;2023-07-29T00:00:49;18.20;99.90
59857;DHT22;45733;52.668;6.860;2023-07-29T00:03:18;18.30;99.90
59857;DHT22;45733;52.668;6.860;2023-07-29T00:05:44;18.10;99.90
59857;DHT22;45733;52.668;6.860;2023-07-29T00:08:10;18.10;99.90
59857;DHT22;45733;52.668;6.860;2023-07-29T00:10:36;18.10;99.90
59857;DHT22;45733;52.668;6.860;2023-07-29T00:13:05;18.50;99.90
59857;DHT22;45733;52.668;6.860;2023-07-29T00:15:31;18.50;99.90
59857;DHT22;45733;52.668;6.860;2023-07-29T00:17:57;18.40;99.90
59857;DHT22;45733;52.668;6.860;2023-07-29T00:20:23;18.20;99.90
59857;DHT22;45733;52.668;6.860;2023-07-29T00:22:49;18.70;99.90
59857;DHT22;45733;52.668;6.860;2023-07-29T00:25:21;18.60;99.90
59857;DHT22;45733;52.668;6.860;2023-07-29T00:27:47;18.40;99.90
59857;DHT22;45733;52.668;6.860;2023-07-29T00:30:13;18.60;99.90
59857;DHT22;45733;52.668;6.860;2023-07-29T00:32:38;18.60;99.90
59857;DHT22;45733;52.668;6.860;2023-07-29T00:35:05;18.60;99.90
59857;DHT22;45733;52.668;6.860;2023-07-29T00:37:30;18.80;99.90
59857;DHT22;45733;52.668;6.860;2023-07-29T00:39:57;18.50;99.90
59857;DHT22;45733;52.668;6.860;2023-07-29T00:42:23;18.30;99.90
59857;DHT22;45733;52.668;6.860;2023-07-29T00:44:49;18.40;99.90
59857;DHT22;45733;52.668;6.860;2023-07-29T00:47:15;18.60;99.90
59857;DHT22;45733;52.668;6.860;2023-07-29T00:49:44;18.40;99.90
59857;DHT22;45733;52.668;6.860;2023-07-29T00:52:11;18.60;99.90
59857;DHT22;45733;52.668;6.860;2023-07-29T00:54:41;18.40;99.90
59857;DHT22;45733;52.668;6.860;2023-07-29T00:57:08;18.50;99.90
59857;DHT22;45733;52.668;6.860;2023-07-29T00:59:38;18.50;99.90
59857;DHT22;45733;52.668;6.860;2023-07-29T01:02:04;18.30;99.90
59857;DHT22;45733;52.668;6.860;2023-07-29T01:04:32;18.40;99.90
59857;DHT22;45733;52.668;6.860;2023-07-29T01:10:02;18.70;99.90
59857;DHT22;45733;52.668;6.860;2023-07-29T01:18:34;18.70;99.90
59857;DHT22;45733;52.668;6.860;2023-07-29T01:21:04;18.70;99.90
59857;DHT22;45733;52.668;6.860;2023-07-29T01:23:35;18.30;99.90
59857;DHT22;45733;52.668;6.860;2023-07-29T01:26:02;18.40;99.90
59857;DHT22;45733;52.668;6.860;2023-07-29T01:28:28;18.50;99.90
59857;DHT22;45733;52.668;6.860;2023-07-29T01:36:42;18.70;99.90
59857;DHT22;45733;52.668;6.860;2023-07-29T01:39:09;18.90;99.90
59857;DHT22;45733;52.668;6.860;2023-07-29T01:41:37;18.50;99.90
59857;DHT22;45733;52.668;6.860;2023-07-29T01:44:03;18.90;99.90
59857;DHT22;45733;52.668;6.860;2023-07-29T01:46:29;18.60;99.90
59857;DHT22;45733;52.668;6.860;2023-07-29T01:49:00;18.30;99.90
59857;DHT22;45733;52.668;6.860;2023-07-29T01:51:26;18.60;99.90
59857;DHT22;45733;52.668;6.860;2023-07-29T01:53:54;18.30;99.90
59857;DHT22;45733;52.668;6.860;2023-07-29T01:56:21;18.40;99.90
59857;DHT22;45733;52.668;6.860;2023-07-29T01:58:47;18.60;99.90
59857;DHT22;45733;52.668;6.860;2023-07-29T02:01:15;18.40;99.90
59857;DHT22;45733;52.668;6.860;2023-07-29T02:03:41;18.40;99.90
59857;DHT22;45733;52.668;6.860;2023-07-29T02:06:25;18.40;99.90
59857;DHT22;45733;52.668;6.860;2023-07-29T02:09:07;18.40;99.90
59857;DHT22;45733;52.668;6.860;2023-07-29T02:11:42;18.20;99.90
59857;DHT22;45733;52.668;6.860;2023-07-29T02:14:29;18.40;99.90
59857;DHT22;45733;52.668;6.860;2023-07-29T02:17:18;18.50;99.90
59857;DHT22;45733;52.668;6.860;2023-07-29T02:19:44;18.30;99.90
59857;DHT22;45733;52.668;6.860;2023-07-29T02:22:17;18.30;99.90
59857;DHT22;45733;52.668;6.860;2023-07-29T02:24:45;18.20;99.90
59857;DHT22;45733;52.668;6.860;2023-07-29T02:27:38;18.30;99.90
59857;DHT22;45733;52.668;6.860;2023-07-29T02:30:06;18.20;99.90
59857;DHT22;45733;52.668;6.860;2023-07-29T02:32:41;18.20;99.90
59857;DHT22;45733;52.668;6.860;2023-07-29T02:37:57;18.40;99.90
59857;DHT22;45733;52.668;6.860;2023-07-29T02:40:40;18.10;99.90
59857;DHT22;45733;52.668;6.860;2023-07-29T02:43:06;18.30;99.90
59857;DHT22;45733;52.668;6.860;2023-07-29T02:45:32;18.20;99.90
59857;DHT22;45733;52.668;6.860;2023-07-29T02:51:33;18.10;99.90
59857;DHT22;45733;52.668;6.860;2023-07-29T02:54:08;17.90;99.90
59857;DHT22;45733;52.668;6.860;2023-07-29T02:56:38;17.80;99.90
59857;DHT22;45733;52.668;6.860;2023-07-29T02:59:04;17.90;99.90
59857;DHT22;45733;52.668;6.860;2023-07-29T03:01:53;18.00;99.90
59857;DHT22;45733;52.668;6.860;2023-07-29T03:11:26;17.60;99.90
59857;DHT22;45733;52.668;6.860;2023-07-29T03:14:47;17.70;99.90
59857;DHT22;45733;52.668;6.860;2023-07-29T03:17:33;17.70;99.90
59857;DHT22;45733;52.668;6.860;2023-07-29T03:19:59;17.50;99.90
59857;DHT22;45733;52.668;6.860;2023-07-29T03:22:25;17.60;99.90
59857;DHT22;45733;52.668;6.860;2023-07-29T03:24:58;17.50;99.90
59857;DHT22;45733;52.668;6.860;2023-07-29T03:27:24;17.40;99.90
59857;DHT22;45733;52.668;6.860;2023-07-29T03:29:49;17.50;99.90
59857;DHT22;45733;52.668;6.860;2023-07-29T03:32:15;17.30;99.90
59857;DHT22;45733;52.668;6.860;2023-07-29T03:34:41;17.40;99.90
59857;DHT22;45733;52.668;6.860;2023-07-29T03:37:07;17.30;99.90
59857;DHT22;45733;52.668;6.860;2023-07-29T03:39:35;17.40;99.90
59857;DHT22;45733;52.668;6.860;2023-07-29T03:42:01;17.50;99.90
59857;DHT22;45733;52.668;6.860;2023-07-29T03:44:27;17.50;99.90
59857;DHT22;45733;52.668;6.860;2023-07-29T03:46:53;17.30;99.90
59857;DHT22;45733;52.668;6.860;2023-07-29T03:49:18;17.50;99.90
59857;DHT22;45733;52.668;6.860;2023-07-29T03:51:44;17.50;99.90
59857;DHT22;45733;52.668;6.860;2023-07-29T03:54:11;17.40;99.90
59857;DHT22;45733;52.668;6.860;2023-07-29T03:56:36;17.20;99.90
59857;DHT22;45733;52.668;6.860;2023-07-29T03:59:05;17.20;99.90
59857;DHT22;45733;52.668;6.860;2023-07-29T04:01:32;17.40;99.90
59857;DHT22;45733;52.668;6.860;2023-07-29T04:04:01;17.30;99.90
59857;DHT22;45733;52.668;6.860;2023-07-29T04:06:27;17.20;99.90
59857;DHT22;45733;52.668;6.860;2023-07-29T04:08:53;17.30;99.90
59857;DHT22;45733;52.668;6.860;2023-07-29T04:11:24;17.30;99.90
59857;DHT22;45733;52.668;6.860;2023-07-29T04:13:49;17.30;99.90
59857;DHT22;45733;52.668;6.860;2023-07-29T04:16:15;17.40;99.90
59857;DHT22;45733;52.668;6.860;2023-07-29T04:18:42;17.50;99.90
59857;DHT22;45733;52.668;6.860;2023-07-29T04:21:08;17.30;99.90
59857;DHT22;45733;52.668;6.860;2023-07-29T04:23:34;17.40;99.90
59857;DHT22;45733;52.668;6.860;2023-07-29T04:26:00;17.30;99.90
59857;DHT22;45733;52.668;6.860;2023-07-29T04:28:29;17.20;99.90
59857;DHT22;45733;52.668;6.860;2023-07-29T04:30:54;17.40;99.90
59857;DHT22;45733;52.668;6.860;2023-07-29T04:33:20;17.60;99.90
59857;DHT22;45733;52.668;6.860;2023-07-29T04:35:46;17.40;99.90
59857;DHT22;45733;52.668;6.860;2023-07-29T04:42:12;17.50;99.90
59857;DHT22;45733;52.668;6.860;2023-07-29T04:44:38;17.40;99.90
59857;DHT22;45733;52.668;6.860;2023-07-29T04:47:04;17.60;99.90
59857;DHT22;45733;52.668;6.860;2023-07-29T04:49:30;17.60;99.90
59857;DHT22;45733;52.668;6.860;2023-07-29T04:52:16;17.70;99.90
59857;DHT22;45733;52.668;6.860;2023-07-29T04:54:47;17.60;99.90
59857;DHT22;45733;52.668;6.860;2023-07-29T04:57:13;17.80;99.90
59857;DHT22;45733;52.668;6.860;2023-07-29T04:59:42;17.60;99.90
59857;DHT22;45733;52.668;6.860;2023-07-29T05:02:07;17.60;99.90
59857;DHT22;45733;52.668;6.860;2023-07-29T05:04:33;17.50;99.90
59857;DHT22;45733;52.668;6.860;2023-07-29T05:06:59;17.50;99.90
59857;DHT22;45733;52.668;6.860;2023-07-29T05:09:25;17.70;99.90
59857;DHT22;45733;52.668;6.860;2023-07-29T05:11:51;17.80;99.90
59857;DHT22;45733;52.668;6.860;2023-07-29T05:14:17;17.50;99.90
59857;DHT22;45733;52.668;6.860;2023-07-29T05:16:44;17.70;99.90
59857;DHT22;45733;52.668;6.860;2023-07-29T05:19:09;17.80;99.90
59857;DHT22;45733;52.668;6.860;2023-07-29T05:21:36;17.60;99.90
59857;DHT22;45733;52.668;6.860;2023-07-29T05:24:02;17.60;99.90
59857;DHT22;45733;52.668;6.860;2023-07-29T05:26:28;17.60;99.90
59857;DHT22;45733;52.668;6.860;2023-07-29T05:29:00;17.60;99.90
59857;DHT22;45733;52.668;6.860;2023-07-29T05:31:26;17.90;99.90
59857;DHT22;45733;52.668;6.860;2023-07-29T05:33:51;17.80;99.90
59857;DHT22;45733;52.668;6.860;2023-07-29T05:36:17;17.90;99.90
59857;DHT22;45733;52.668;6.860;2023-07-29T05:38:43;18.20;99.90
59857;DHT22;45733;52.668;6.860;2023-07-29T05:41:09;17.80;99.90
59857;DHT22;45733;52.668;6.860;2023-07-29T05:43:37;18.10;99.90
59857;DHT22;45733;52.668;6.860;2023-07-29T05:46:03;18.10;99.90
59857;DHT22;45733;52.668;6.860;2023-07-29T05:48:29;18.20;99.90
59857;DHT22;45733;52.668;6.860;2023-07-29T05:50:55;18.00;99.90
59857;DHT22;45733;52.668;6.860;2023-07-29T05:53:35;18.20;99.90
59857;DHT22;45733;52.668;6.860;2023-07-29T05:56:04;18.20;99.90
59857;DHT22;45733;52.668;6.860;2023-07-29T05:58:32;18.10;99.90
59857;DHT22;45733;52.668;6.860;2023-07-29T06:01:21;18.20;99.90
59857;DHT22;45733;52.668;6.860;2023-07-29T06:03:50;18.10;99.90
59857;DHT22;45733;52.668;6.860;2023-07-29T06:06:44;18.30;99.90
59857;DHT22;45733;52.668;6.860;2023-07-29T06:09:10;18.30;99.90
59857;DHT22;45733;52.668;6.860;2023-07-29T06:11:35;18.30;99.90
59857;DHT22;45733;52.668;6.860;2023-07-29T06:14:01;18.30;99.90
59857;DHT22;45733;52.668;6.860;2023-07-29T06:16:27;18.30;99.90
59857;DHT22;45733;52.668;6.860;2023-07-29T06:18:52;18.50;99.90
59857;DHT22;45733;52.668;6.860;2023-07-29T06:21:18;18.80;99.90
59857;DHT22;45733;52.668;6.860;2023-07-29T06:23:48;18.70;99.90
59857;DHT22;45733;52.668;6.860;2023-07-29T06:26:13;18.80;99.90
59857;DHT22;45733;52.668;6.860;2023-07-29T06:28:42;19.10;99.90
59857;DHT22;45733;52.668;6.860;2023-07-29T06:31:07;19.00;99.90
59857;DHT22;45733;52.668;6.860;2023-07-29T06:33:33;19.10;99.90
59857;DHT22;45733;52.668;6.860;2023-07-29T06:35:59;19.00;99.90
59857;DHT22;45733;52.668;6.860;2023-07-29T06:38:24;19.10;99.90
59857;DHT22;45733;52.668;6.860;2023-07-29T06:40:50;18.80;99.90
59857;DHT22;45733;52.668;6.860;2023-07-29T06:43:16;19.00;99.90
59857;DHT22;45733;52.668;6.860;2023-07-29T06:45:45;19.10;99.90
59857;DHT22;45733;52.668;6.860;2023-07-29T06:48:11;19.20;99.90
59857;DHT22;45733;52.668;6.860;2023-07-29T06:50:36;19.40;99.90
59857;DHT22;45733;52.668;6.860;2023-07-29T06:53:06;19.50;99.90
59857;DHT22;45733;52.668;6.860;2023-07-29T06:55:34;19.60;99.90
59857;DHT22;45733;52.668;6.860;2023-07-29T06:58:00;19.60;99.90
59857;DHT22;45733;52.668;6.860;2023-07-29T07:00:26;19.60;99.90
59857;DHT22;45733;52.668;6.860;2023-07-29T07:02:51;19.70;99.90
59857;DHT22;45733;52.668;6.860;2023-07-29T07:05:17;19.70;99.90
59857;DHT22;45733;52.668;6.860;2023-07-29T07:07:49;19.70;99.90
59857;DHT22;45733;52.668;6.860;2023-07-29T07:10:15;19.60;99.90
59857;DHT22;45733;52.668;6.860;2023-07-29T07:12:40;19.70;99.90
59857;DHT22;45733;52.668;6.860;2023-07-29T07:15:06;20.00;99.90
59857;DHT22;45733;52.668;6.860;2023-07-29T07:17:32;20.40;99.90
59857;DHT22;45733;52.668;6.860;2023-07-29T07:19:58;20.10;99.90
59857;DHT22;45733;52.668;6.860;2023-07-29T07:22:23;19.90;99.90
59857;DHT22;45733;52.668;6.860;2023-07-29T07:24:49;19.80;99.90
59857;DHT22;45733;52.668;6.860;2023-07-29T07:27:15;20.10;99.90
59857;DHT22;45733;52.668;6.860;2023-07-29T07:29:40;20.60;99.90
59857;DHT22;45733;52.668;6.860;2023-07-29T07:32:06;21.00;99.90
59857;DHT22;45733;52.668;6.860;2023-07-29T07:34:32;21.00;99.90
59857;DHT22;45733;52.668;6.860;2023-07-29T07:36:58;21.40;99.90
59857;DHT22;45733;52.668;6.860;2023-07-29T07:39:27;21.20;99.90
59857;DHT22;45733;52.668;6.860;2023-07-29T07:41:53;20.90;99.90
59857;DHT22;45733;52.668;6.860;2023-07-29T07:44:18;20.80;99.90
59857;DHT22;45733;52.668;6.860;2023-07-29T07:46:45;21.10;99.90
59857;DHT22;45733;52.668;6.860;2023-07-29T07:49:11;21.20;99.90
59857;DHT22;45733;52.668;6.860;2023-07-29T07:51:38;21.00;99.90
59857;DHT22;45733;52.668;6.860;2023-07-29T07:54:04;21.10;99.90
59857;DHT22;45733;52.668;6.860;2023-07-29T07:56:30;21.10;99.90
59857;DHT22;45733;52.668;6.860;2023-07-29T07:58:55;21.30;99.90
59857;DHT22;45733;52.668;6.860;2023-07-29T08:01:21;21.50;99.90
59857;DHT22;45733;52.668;6.860;2023-07-29T08:03:47;21.20;99.90
59857;DHT22;45733;52.668;6.860;2023-07-29T08:06:15;21.20;99.90
59857;DHT22;45733;52.668;6.860;2023-07-29T08:08:41;21.30;99.90
59857;DHT22;45733;52.668;6.860;2023-07-29T08:11:06;21.10;99.90
59857;DHT22;45733;52.668;6.860;2023-07-29T08:13:32;21.00;99.90
59857;DHT22;45733;52.668;6.860;2023-07-29T08:15:58;21.00;99.90
59857;DHT22;45733;52.668;6.860;2023-07-29T08:18:23;21.30;99.90
59857;DHT22;45733;52.668;6.860;2023-07-29T08:20:57;21.20;99.90
59857;DHT22;45733;52.668;6.860;2023-07-29T08:23:26;21.20;99.90
59857;DHT22;45733;52.668;6.860;2023-07-29T08:25:56;21.00;99.90
59857;DHT22;45733;52.668;6.860;2023-07-29T08:28:30;21.40;99.90
59857;DHT22;45733;52.668;6.860;2023-07-29T08:30:56;21.60;99.90
59857;DHT22;45733;52.668;6.860;2023-07-29T08:33:22;21.50;99.90
59857;DHT22;45733;52.668;6.860;2023-07-29T08:35:47;21.20;99.90
59857;DHT22;45733;52.668;6.860;2023-07-29T08:38:13;21.30;99.90
59857;DHT22;45733;52.668;6.860;2023-07-29T08:40:43;21.70;99.90
59857;DHT22;45733;52.668;6.860;2023-07-29T08:43:11;21.90;99.90
59857;DHT22;45733;52.668;6.860;2023-07-29T08:45:38;22.00;99.90
59857;DHT22;45733;52.668;6.860;2023-07-29T08:48:09;22.20;99.90
59857;DHT22;45733;52.668;6.860;2023-07-29T08:50:36;22.10;99.90
59857;DHT22;45733;52.668;6.860;2023-07-29T08:53:05;21.90;99.90
59857;DHT22;45733;52.668;6.860;2023-07-29T08:55:32;21.70;99.90
59857;DHT22;45733;52.668;6.860;2023-07-29T08:57:59;21.90;99.90
59857;DHT22;45733;52.668;6.860;2023-07-29T09:00:26;22.10;99.90
59857;DHT22;45733;52.668;6.860;2023-07-29T09:02:52;21.90;99.90
59857;DHT22;45733;52.668;6.860;2023-07-29T09:05:18;21.80;99.90
59857;DHT22;45733;52.668;6.860;2023-07-29T09:07:53;22.30;99.90
59857;DHT22;45733;52.668;6.860;2023-07-29T09:10:21;22.90;99.90
59857;DHT22;45733;52.668;6.860;2023-07-29T09:12:49;22.70;99.90
59857;DHT22;45733;52.668;6.860;2023-07-29T09:15:29;22.60;99.90
59857;DHT22;45733;52.668;6.860;2023-07-29T09:17:57;22.50;99.90
59857;DHT22;45733;52.668;6.860;2023-07-29T09:20:25;22.20;99.90
59857;DHT22;45733;52.668;6.860;2023-07-29T09:22:51;22.50;99.90
59857;DHT22;45733;52.668;6.860;2023-07-29T09:25:23;22.50;99.90
59857;DHT22;45733;52.668;6.860;2023-07-29T09:27:49;22.90;99.90
59857;DHT22;45733;52.668;6.860;2023-07-29T09:30:18;23.30;99.90
59857;DHT22;45733;52.668;6.860;2023-07-29T09:32:43;23.80;99.90
59857;DHT22;45733;52.668;6.860;2023-07-29T09:35:13;24.00;99.90
59857;DHT22;45733;52.668;6.860;2023-07-29T09:37:39;23.90;99.90
59857;DHT22;45733;52.668;6.860;2023-07-29T09:40:06;23.50;99.90
59857;DHT22;45733;52.668;6.860;2023-07-29T09:42:32;24.10;99.90
59857;DHT22;45733;52.668;6.860;2023-07-29T09:44:58;24.40;99.90
59857;DHT22;45733;52.668;6.860;2023-07-29T09:47:25;24.70;99.90
59857;DHT22;45733;52.668;6.860;2023-07-29T09:49:51;24.20;99.90
59857;DHT22;45733;52.668;6.860;2023-07-29T09:52:19;24.20;99.90
59857;DHT22;45733;52.668;6.860;2023-07-29T09:54:45;23.80;99.90
59857;DHT22;45733;52.668;6.860;2023-07-29T09:57:14;23.60;99.90
59857;DHT22;45733;52.668;6.860;2023-07-29T09:59:40;23.30;99.90
59857;DHT22;45733;52.668;6.860;2023-07-29T10:02:15;23.00;99.90
59857;DHT22;45733;52.668;6.860;2023-07-29T10:04:42;22.80;99.90
59857;DHT22;45733;52.668;6.860;2023-07-29T10:07:09;22.60;99.90
59857;DHT22;45733;52.668;6.860;2023-07-29T10:09:36;22.40;99.90
59857;DHT22;45733;52.668;6.860;2023-07-29T10:12:04;22.40;99.90
59857;DHT22;45733;52.668;6.860;2023-07-29T10:14:31;22.90;99.90
59857;DHT22;45733;52.668;6.860;2023-07-29T10:16:57;23.10;99.90
59857;DHT22;45733;52.668;6.860;2023-07-29T10:19:25;24.00;99.90
59857;DHT22;45733;52.668;6.860;2023-07-29T10:21:51;24.30;99.90
59857;DHT22;45733;52.668;6.860;2023-07-29T10:24:24;23.90;99.90
59857;DHT22;45733;52.668;6.860;2023-07-29T10:26:59;24.20;99.90
59857;DHT22;45733;52.668;6.860;2023-07-29T10:29:30;23.90;99.90
59857;DHT22;45733;52.668;6.860;2023-07-29T10:31:57;23.60;99.90
59857;DHT22;45733;52.668;6.860;2023-07-29T10:34:26;23.60;99.90
59857;DHT22;45733;52.668;6.860;2023-07-29T10:36:53;24.00;99.90
59857;DHT22;45733;52.668;6.860;2023-07-29T10:39:19;23.50;99.90
59857;DHT22;45733;52.668;6.860;2023-07-29T10:41:58;23.40;99.90
59857;DHT22;45733;52.668;6.860;2023-07-29T10:49:54;23.70;99.90
59857;DHT22;45733;52.668;6.860;2023-07-29T10:52:44;24.00;99.90
59857;DHT22;45733;52.668;6.860;2023-07-29T10:55:39;24.80;99.90
59857;DHT22;45733;52.668;6.860;2023-07-29T10:58:13;24.10;99.90
59857;DHT22;45733;52.668;6.860;2023-07-29T11:00:42;24.40;99.90
59857;DHT22;45733;52.668;6.860;2023-07-29T11:03:08;24.50;99.90
59857;DHT22;45733;52.668;6.860;2023-07-29T11:05:53;24.40;99.90
59857;DHT22;45733;52.668;6.860;2023-07-29T11:08:30;23.70;99.90
59857;DHT22;45733;52.668;6.860;2023-07-29T11:13:29;23.60;99.90
59857;DHT22;45733;52.668;6.860;2023-07-29T11:15:55;23.20;99.90
59857;DHT22;45733;52.668;6.860;2023-07-29T11:18:21;22.80;99.90
59857;DHT22;45733;52.668;6.860;2023-07-29T11:20:47;22.80;99.90
59857;DHT22;45733;52.668;6.860;2023-07-29T11:23:16;22.90;99.90
59857;DHT22;45733;52.668;6.860;2023-07-29T11:25:41;23.00;99.90
59857;DHT22;45733;52.668;6.860;2023-07-29T11:28:08;23.30;99.90
59857;DHT22;45733;52.668;6.860;2023-07-29T11:30:33;23.30;99.90
59857;DHT22;45733;52.668;6.860;2023-07-29T11:32:59;23.10;99.90
59857;DHT22;45733;52.668;6.860;2023-07-29T11:35:25;22.80;99.90
59857;DHT22;45733;52.668;6.860;2023-07-29T11:38:14;22.50;99.90
59857;DHT22;45733;52.668;6.860;2023-07-29T11:40:39;22.20;99.90
59857;DHT22;45733;52.668;6.860;2023-07-29T11:43:05;22.10;99.90
59857;DHT22;45733;52.668;6.860;2023-07-29T11:45:31;22.10;99.90
59857;DHT22;45733;52.668;6.860;2023-07-29T11:47:56;21.90;99.90
59857;DHT22;45733;52.668;6.860;2023-07-29T11:50:26;21.90;99.90
59857;DHT22;45733;52.668;6.860;2023-07-29T11:52:52;22.10;99.90
59857;DHT22;45733;52.668;6.860;2023-07-29T11:55:18;22.60;99.90
59857;DHT22;45733;52.668;6.860;2023-07-29T11:57:47;23.20;99.90
59857;DHT22;45733;52.668;6.860;2023-07-29T12:00:16;23.20;99.90
59857;DHT22;45733;52.668;6.860;2023-07-29T12:02:45;23.50;99.90
59857;DHT22;45733;52.668;6.860;2023-07-29T12:05:13;23.90;99.90
59857;DHT22;45733;52.668;6.860;2023-07-29T12:07:39;24.20;99.90
59857;DHT22;45733;52.668;6.860;2023-07-29T12:10:07;24.40;99.90
59857;DHT22;45733;52.668;6.860;2023-07-29T12:12:32;24.30;99.90
59857;DHT22;45733;52.668;6.860;2023-07-29T12:14:58;24.40;99.90
59857;DHT22;45733;52.668;6.860;2023-07-29T12:17:24;24.70;99.90
59857;DHT22;45733;52.668;6.860;2023-07-29T12:19:50;25.20;99.90
59857;DHT22;45733;52.668;6.860;2023-07-29T12:22:19;25.00;99.90
59857;DHT22;45733;52.668;6.860;2023-07-29T12:24:45;25.40;99.90
59857;DHT22;45733;52.668;6.860;2023-07-29T12:27:14;24.50;99.90
59857;DHT22;45733;52.668;6.860;2023-07-29T12:29:42;24.20;99.90
59857;DHT22;45733;52.668;6.860;2023-07-29T12:32:08;24.10;99.90
59857;DHT22;45733;52.668;6.860;2023-07-29T12:34:35;24.20;99.90
59857;DHT22;45733;52.668;6.860;2023-07-29T12:37:02;24.90;99.90
59857;DHT22;45733;52.668;6.860;2023-07-29T12:39:40;25.60;99.90
59857;DHT22;45733;52.668;6.860;2023-07-29T12:42:07;25.80;99.90
59857;DHT22;45733;52.668;6.860;2023-07-29T12:44:34;26.20;99.90
59857;DHT22;45733;52.668;6.860;2023-07-29T12:47:05;26.30;99.90
59857;DHT22;45733;52.668;6.860;2023-07-29T12:49:31;25.80;99.90
59857;DHT22;45733;52.668;6.860;2023-07-29T12:51:58;25.90;99.90
59857;DHT22;45733;52.668;6.860;2023-07-29T12:54:24;25.40;99.90
59857;DHT22;45733;52.668;6.860;2023-07-29T12:56:50;25.60;99.90
59857;DHT22;45733;52.668;6.860;2023-07-29T12:59:16;25.80;99.90
59857;DHT22;45733;52.668;6.860;2023-07-29T13:01:41;25.60;99.90
59857;DHT22;45733;52.668;6.860;2023-07-29T13:04:07;26.00;99.90
59857;DHT22;45733;52.668;6.860;2023-07-29T13:06:33;26.40;99.90
59857;DHT22;45733;52.668;6.860;2023-07-29T13:08:58;25.80;99.90
59857;DHT22;45733;52.668;6.860;2023-07-29T13:11:24;26.00;99.90
59857;DHT22;45733;52.668;6.860;2023-07-29T13:13:50;25.50;99.90
59857;DHT22;45733;52.668;6.860;2023-07-29T13:16:15;25.70;99.90
59857;DHT22;45733;52.668;6.860;2023-07-29T13:18:43;25.70;99.90
59857;DHT22;45733;52.668;6.860;2023-07-29T13:21:09;25.00;99.90
59857;DHT22;45733;52.668;6.860;2023-07-29T13:23:35;24.40;99.90
59857;DHT22;45733;52.668;6.860;2023-07-29T13:26:01;24.10;99.90
59857;DHT22;45733;52.668;6.860;2023-07-29T13:28:26;24.00;99.90
59857;DHT22;45733;52.668;6.860;2023-07-29T13:30:52;24.20;99.90
59857;DHT22;45733;52.668;6.860;2023-07-29T13:33:18;24.30;99.90
59857;DHT22;45733;52.668;6.860;2023-07-29T13:35:44;24.50;99.90
59857;DHT22;45733;52.668;6.860;2023-07-29T13:38:09;24.90;99.90
59857;DHT22;45733;52.668;6.860;2023-07-29T13:40:36;24.40;99.90
59857;DHT22;45733;52.668;6.860;2023-07-29T13:43:02;24.10;99.90
59857;DHT22;45733;52.668;6.860;2023-07-29T13:45:27;24.10;99.90
59857;DHT22;45733;52.668;6.860;2023-07-29T13:47:53;24.30;99.90
59857;DHT22;45733;52.668;6.860;2023-07-29T13:50:19;25.00;99.90
59857;DHT22;45733;52.668;6.860;2023-07-29T13:52:44;25.20;99.90
59857;DHT22;45733;52.668;6.860;2023-07-29T13:55:10;25.20;99.90
59857;DHT22;45733;52.668;6.860;2023-07-29T13:57:37;24.60;99.90
59857;DHT22;45733;52.668;6.860;2023-07-29T14:00:05;24.60;99.90
59857;DHT22;45733;52.668;6.860;2023-07-29T14:02:31;25.20;99.90
59857;DHT22;45733;52.668;6.860;2023-07-29T14:04:57;25.70;99.90
59857;DHT22;45733;52.668;6.860;2023-07-29T14:07:23;25.50;99.90
59857;DHT22;45733;52.668;6.860;2023-07-29T14:09:48;25.00;99.90
59857;DHT22;45733;52.668;6.860;2023-07-29T14:12:14;24.50;99.90
59857;DHT22;45733;52.668;6.860;2023-07-29T14:14:44;24.30;99.90
59857;DHT22;45733;52.668;6.860;2023-07-29T14:17:09;24.00;99.90
59857;DHT22;45733;52.668;6.860;2023-07-29T14:19:36;23.60;99.90
59857;DHT22;45733;52.668;6.860;2023-07-29T14:22:01;23.40;99.90
59857;DHT22;45733;52.668;6.860;2023-07-29T14:24:27;23.60;99.90
59857;DHT22;45733;52.668;6.860;2023-07-29T14:26:53;24.00;99.90
59857;DHT22;45733;52.668;6.860;2023-07-29T14:29:18;24.30;99.90
59857;DHT22;45733;52.668;6.860;2023-07-29T14:31:44;24.60;99.90
59857;DHT22;45733;52.668;6.860;2023-07-29T14:34:10;24.70;99.90
59857;DHT22;45733;52.668;6.860;2023-07-29T14:36:36;24.90;99.90
59857;DHT22;45733;52.668;6.860;2023-07-29T14:39:02;24.50;99.90
59857;DHT22;45733;52.668;6.860;2023-07-29T14:41:31;24.90;99.90
59857;DHT22;45733;52.668;6.860;2023-07-29T14:43:57;25.20;99.90
59857;DHT22;45733;52.668;6.860;2023-07-29T14:46:23;24.70;99.90
59857;DHT22;45733;52.668;6.860;2023-07-29T14:48:48;24.10;99.90
59857;DHT22;45733;52.668;6.860;2023-07-29T14:51:14;23.80;99.90
59857;DHT22;45733;52.668;6.860;2023-07-29T14:53:40;23.70;99.90
59857;DHT22;45733;52.668;6.860;2023-07-29T14:56:06;24.30;99.90
59857;DHT22;45733;52.668;6.860;2023-07-29T14:58:34;24.10;99.90
59857;DHT22;45733;52.668;6.860;2023-07-29T15:01:00;23.60;99.90
59857;DHT22;45733;52.668;6.860;2023-07-29T15:03:26;23.70;99.90
59857;DHT22;45733;52.668;6.860;2023-07-29T15:05:52;23.50;99.90
59857;DHT22;45733;52.668;6.860;2023-07-29T15:08:17;23.70;99.90
59857;DHT22;45733;52.668;6.860;2023-07-29T15:10:50;23.50;99.90
59857;DHT22;45733;52.668;6.860;2023-07-29T15:13:15;23.10;99.90
59857;DHT22;45733;52.668;6.860;2023-07-29T15:15:55;22.90;99.90
59857;DHT22;45733;52.668;6.860;2023-07-29T15:18:21;22.60;99.90
59857;DHT22;45733;52.668;6.860;2023-07-29T15:20:47;22.40;99.90
59857;DHT22;45733;52.668;6.860;2023-07-29T15:23:13;22.00;99.90
59857;DHT22;45733;52.668;6.860;2023-07-29T15:25:38;21.70;99.90
59857;DHT22;45733;52.668;6.860;2023-07-29T15:28:04;21.40;99.90
59857;DHT22;45733;52.668;6.860;2023-07-29T15:30:30;21.10;99.90
59857;DHT22;45733;52.668;6.860;2023-07-29T15:32:55;20.90;99.90
59857;DHT22;45733;52.668;6.860;2023-07-29T15:35:22;20.90;99.90
59857;DHT22;45733;52.668;6.860;2023-07-29T15:37:47;20.90;99.90
59857;DHT22;45733;52.668;6.860;2023-07-29T15:40:13;20.90;99.90
59857;DHT22;45733;52.668;6.860;2023-07-29T15:42:39;21.00;99.90
59857;DHT22;45733;52.668;6.860;2023-07-29T15:45:05;21.10;99.90
59857;DHT22;45733;52.668;6.860;2023-07-29T15:47:31;21.20;99.90
59857;DHT22;45733;52.668;6.860;2023-07-29T15:49:57;21.00;99.90
59857;DHT22;45733;52.668;6.860;2023-07-29T15:52:22;21.00;99.90
59857;DHT22;45733;52.668;6.860;2023-07-29T15:54:49;21.00;99.90
59857;DHT22;45733;52.668;6.860;2023-07-29T15:57:16;21.10;99.90
59857;DHT22;45733;52.668;6.860;2023-07-29T15:59:42;21.40;99.90
59857;DHT22;45733;52.668;6.860;2023-07-29T16:02:08;21.60;99.90
59857;DHT22;45733;52.668;6.860;2023-07-29T16:04:34;21.90;99.90
59857;DHT22;45733;52.668;6.860;2023-07-29T16:07:00;22.10;99.90
59857;DHT22;45733;52.668;6.860;2023-07-29T16:09:25;22.30;99.90
59857;DHT22;45733;52.668;6.860;2023-07-29T16:11:52;22.40;99.90
59857;DHT22;45733;52.668;6.860;2023-07-29T16:14:17;22.30;99.90